This is the latest recevied weather packets stored in our database for station/object IT9RID. If no packets are shown the sender has not sent any weather packets the latest 10 day(s).
| Time | Temp. | Humidity | Pressure | Rain* | Wind** | Luminosity | Snow |
|---|---|---|---|---|---|---|---|
| 1788100104 | 34.44° C | 48% | 1013.5 hPa | 0 mm | - | - | - |
| 1788099504 | 34.44° C | 43% | 1013.5 hPa | 0 mm | - | - | - |
| 1788098904 | 35.56° C | 37% | 1013.4 hPa | 0 mm | - | - | - |
| 1788098304 | 35.56° C | 36% | 1013.2 hPa | 0 mm | - | - | - |
| 1788097103 | 35.56° C | 33% | 1013.1 hPa | 0 mm | - | - | - |
| 1788096503 | 36.11° C | 31% | 1013.1 hPa | 0 mm | - | - | - |
| 1788095903 | 36.11° C | 31% | 1013.1 hPa | 0 mm | - | - | - |
| 1788095303 | 36.11° C | 30% | 1013 hPa | 0 mm | - | - | - |
| 1788094702 | 36.11° C | 29% | 1013 hPa | 0 mm | - | - | - |
| 1788094102 | 36.67° C | 28% | 1013 hPa | 0 mm | - | - | - |
| 1788093502 | 37.22° C | 27% | 1013 hPa | 0 mm | - | - | - |
| 1788092902 | 37.22° C | 28% | 1013.1 hPa | 0 mm | - | - | - |
| 1788092302 | 36.67° C | 28% | 1013.1 hPa | 0 mm | - | - | - |
| 1788091702 | 37.22° C | 27% | 1013.3 hPa | 0 mm | - | - | - |
| 1788091102 | 36.67° C | 27% | 1013.4 hPa | 0 mm | - | - | - |
| 1788090502 | 37.22° C | 27% | 1013.5 hPa | 0 mm | - | - | - |
| 1788089901 | 36.67° C | 27% | 1013.6 hPa | 0 mm | - | - | - |
| 1788089301 | 37.78° C | 26% | 1013.5 hPa | 0 mm | - | - | - |
| 1788088701 | 37.78° C | 26% | 1013.4 hPa | 0 mm | - | - | - |
| 1788088101 | 37.22° C | 27% | 1013.5 hPa | 0 mm | - | - | - |
| 1788087501 | 36.67° C | 28% | 1013.5 hPa | 0 mm | - | - | - |
| 1788086901 | 35.56° C | 31% | 1013.6 hPa | 0 mm | - | - | - |
| 1788086302 | 35.56° C | 38% | 1013.6 hPa | 0 mm | - | - | - |
| 1788085700 | 35.56° C | 36% | 1013.6 hPa | 0 mm | - | - | - |
| 1788085100 | 37.22° C | 29% | 1013.4 hPa | 0 mm | - | - | - |
* Rain latest hour (hover to see other rain measurements)
** Current wind speed in m/s (hover to see current wind gust speed)